Jeffersonville, New York
Current Conditions -  °F | °C
As of 6:55 PM on Thursday 18 Dec 2014 (Local Time) from KMSV Reporting Station
Overcast Overcast  
Wind Chill: 18°   Ceiling: 1300
Heat Index: 30°   Visibility: 10mi
Dew Point: 27°   Wind: 17mph
Humidity: 86%   Direction: 300°WNW
Pressure: 29.94"   Gusts: 22mph
Location:  41.78°N, 74.93°W
Report Text: KMSV 182355Z AUTO 30015G19KT 10SM OVC013 M01/M03 A2994 RMK AO1 11010 21010 400101010 57003
Loading
Personal Weather Stations






























Interactive Weather Map New forecast layout! Learn more

10-Day Weather Forecast

Advertisements
Track Severe Weather on mobile